sensor_id;sensor_type;location;lat;lon;timestamp;temperature;humidity
22436;DHT22;11385;50.822;4.324;2023-07-30T00:00:25;18.20;99.90
22436;DHT22;11385;50.822;4.324;2023-07-30T00:02:52;18.30;99.90
22436;DHT22;11385;50.822;4.324;2023-07-30T00:05:19;18.30;99.90
22436;DHT22;11385;50.822;4.324;2023-07-30T00:07:45;18.10;99.90
22436;DHT22;11385;50.822;4.324;2023-07-30T00:10:12;18.10;99.90
22436;DHT22;11385;50.822;4.324;2023-07-30T00:12:39;18.10;99.90
22436;DHT22;11385;50.822;4.324;2023-07-30T00:15:07;18.00;99.90
22436;DHT22;11385;50.822;4.324;2023-07-30T00:17:34;17.90;99.90
22436;DHT22;11385;50.822;4.324;2023-07-30T00:20:01;18.00;99.90
22436;DHT22;11385;50.822;4.324;2023-07-30T00:22:27;18.00;99.90
22436;DHT22;11385;50.822;4.324;2023-07-30T00:24:54;18.00;99.90
22436;DHT22;11385;50.822;4.324;2023-07-30T00:27:20;17.80;99.90
22436;DHT22;11385;50.822;4.324;2023-07-30T00:29:47;17.70;99.90
22436;DHT22;11385;50.822;4.324;2023-07-30T00:32:14;17.70;99.90
22436;DHT22;11385;50.822;4.324;2023-07-30T00:34:43;17.60;99.90
22436;DHT22;11385;50.822;4.324;2023-07-30T00:37:10;17.70;99.90
22436;DHT22;11385;50.822;4.324;2023-07-30T00:39:36;17.60;99.90
22436;DHT22;11385;50.822;4.324;2023-07-30T00:42:03;17.30;99.90
22436;DHT22;11385;50.822;4.324;2023-07-30T00:44:30;17.40;99.90
22436;DHT22;11385;50.822;4.324;2023-07-30T00:46:57;17.50;99.90
22436;DHT22;11385;50.822;4.324;2023-07-30T00:49:24;17.60;99.90
22436;DHT22;11385;50.822;4.324;2023-07-30T00:51:50;17.60;99.90
22436;DHT22;11385;50.822;4.324;2023-07-30T00:54:17;17.80;99.90
22436;DHT22;11385;50.822;4.324;2023-07-30T00:56:49;17.90;99.90
22436;DHT22;11385;50.822;4.324;2023-07-30T00:59:14;17.90;99.90
22436;DHT22;11385;50.822;4.324;2023-07-30T01:01:42;18.00;99.90
22436;DHT22;11385;50.822;4.324;2023-07-30T01:04:09;18.20;99.90
22436;DHT22;11385;50.822;4.324;2023-07-30T01:06:36;18.30;99.90
22436;DHT22;11385;50.822;4.324;2023-07-30T01:09:03;18.10;99.90
22436;DHT22;11385;50.822;4.324;2023-07-30T01:11:29;18.10;99.90
22436;DHT22;11385;50.822;4.324;2023-07-30T01:13:57;18.00;99.90
22436;DHT22;11385;50.822;4.324;2023-07-30T01:16:24;18.10;99.90
22436;DHT22;11385;50.822;4.324;2023-07-30T01:18:50;18.10;99.90
22436;DHT22;11385;50.822;4.324;2023-07-30T01:21:17;17.90;99.90
22436;DHT22;11385;50.822;4.324;2023-07-30T01:23:44;17.90;99.90
22436;DHT22;11385;50.822;4.324;2023-07-30T01:26:17;18.10;99.90
22436;DHT22;11385;50.822;4.324;2023-07-30T01:28:44;18.20;99.90
22436;DHT22;11385;50.822;4.324;2023-07-30T01:31:14;18.20;99.90
22436;DHT22;11385;50.822;4.324;2023-07-30T01:33:42;18.20;99.90
22436;DHT22;11385;50.822;4.324;2023-07-30T01:36:11;18.30;99.90
22436;DHT22;11385;50.822;4.324;2023-07-30T01:38:40;18.30;99.90
22436;DHT22;11385;50.822;4.324;2023-07-30T01:41:06;18.10;99.90
22436;DHT22;11385;50.822;4.324;2023-07-30T01:43:33;18.10;99.90
22436;DHT22;11385;50.822;4.324;2023-07-30T01:46:00;18.20;99.90
22436;DHT22;11385;50.822;4.324;2023-07-30T01:48:26;18.20;99.90
22436;DHT22;11385;50.822;4.324;2023-07-30T01:50:53;18.10;99.90
22436;DHT22;11385;50.822;4.324;2023-07-30T01:53:20;18.20;99.90
22436;DHT22;11385;50.822;4.324;2023-07-30T01:55:46;18.20;99.90
22436;DHT22;11385;50.822;4.324;2023-07-30T01:58:13;18.10;99.90
22436;DHT22;11385;50.822;4.324;2023-07-30T02:00:40;18.20;99.90
22436;DHT22;11385;50.822;4.324;2023-07-30T02:03:07;18.10;99.90
22436;DHT22;11385;50.822;4.324;2023-07-30T02:05:34;18.20;99.90
22436;DHT22;11385;50.822;4.324;2023-07-30T02:08:00;18.10;99.90
22436;DHT22;11385;50.822;4.324;2023-07-30T02:10:27;18.20;99.90
22436;DHT22;11385;50.822;4.324;2023-07-30T02:12:54;18.20;99.90
22436;DHT22;11385;50.822;4.324;2023-07-30T02:15:20;18.10;99.90
22436;DHT22;11385;50.822;4.324;2023-07-30T02:17:47;17.90;99.90
22436;DHT22;11385;50.822;4.324;2023-07-30T02:20:14;17.90;99.90
22436;DHT22;11385;50.822;4.324;2023-07-30T02:22:40;18.00;99.90
22436;DHT22;11385;50.822;4.324;2023-07-30T02:25:07;18.10;99.90
22436;DHT22;11385;50.822;4.324;2023-07-30T02:27:34;18.00;99.90
22436;DHT22;11385;50.822;4.324;2023-07-30T02:30:00;18.10;99.90
22436;DHT22;11385;50.822;4.324;2023-07-30T02:32:27;18.00;99.90
22436;DHT22;11385;50.822;4.324;2023-07-30T02:34:55;17.90;99.90
22436;DHT22;11385;50.822;4.324;2023-07-30T02:37:21;18.00;99.90
22436;DHT22;11385;50.822;4.324;2023-07-30T02:39:48;18.00;99.90
22436;DHT22;11385;50.822;4.324;2023-07-30T02:42:14;17.70;99.90
22436;DHT22;11385;50.822;4.324;2023-07-30T02:44:41;17.60;99.90
22436;DHT22;11385;50.822;4.324;2023-07-30T02:47:07;17.60;99.90
22436;DHT22;11385;50.822;4.324;2023-07-30T02:49:34;17.50;99.90
22436;DHT22;11385;50.822;4.324;2023-07-30T02:52:01;17.50;99.90
22436;DHT22;11385;50.822;4.324;2023-07-30T02:54:28;17.60;99.90
22436;DHT22;11385;50.822;4.324;2023-07-30T02:56:54;17.60;99.90
22436;DHT22;11385;50.822;4.324;2023-07-30T02:59:21;17.60;99.90
22436;DHT22;11385;50.822;4.324;2023-07-30T03:01:47;17.50;99.90
22436;DHT22;11385;50.822;4.324;2023-07-30T03:04:14;17.50;99.90
22436;DHT22;11385;50.822;4.324;2023-07-30T03:06:41;17.50;99.90
22436;DHT22;11385;50.822;4.324;2023-07-30T03:09:08;17.60;99.90
22436;DHT22;11385;50.822;4.324;2023-07-30T03:11:34;17.70;99.90
22436;DHT22;11385;50.822;4.324;2023-07-30T03:14:01;17.80;99.90
22436;DHT22;11385;50.822;4.324;2023-07-30T03:16:28;17.90;99.90
22436;DHT22;11385;50.822;4.324;2023-07-30T03:18:54;17.80;99.90
22436;DHT22;11385;50.822;4.324;2023-07-30T03:21:21;17.90;99.90
22436;DHT22;11385;50.822;4.324;2023-07-30T03:23:47;17.70;99.90
22436;DHT22;11385;50.822;4.324;2023-07-30T03:26:14;17.60;99.90
22436;DHT22;11385;50.822;4.324;2023-07-30T03:28:41;17.50;99.90
22436;DHT22;11385;50.822;4.324;2023-07-30T03:31:08;17.40;99.90
22436;DHT22;11385;50.822;4.324;2023-07-30T03:33:34;17.40;99.90
22436;DHT22;11385;50.822;4.324;2023-07-30T03:36:01;17.30;99.90
22436;DHT22;11385;50.822;4.324;2023-07-30T03:38:28;17.30;99.90
22436;DHT22;11385;50.822;4.324;2023-07-30T03:40:55;17.30;99.90
22436;DHT22;11385;50.822;4.324;2023-07-30T03:43:21;17.20;99.90
22436;DHT22;11385;50.822;4.324;2023-07-30T03:45:48;17.20;99.90
22436;DHT22;11385;50.822;4.324;2023-07-30T03:48:14;17.20;99.90
22436;DHT22;11385;50.822;4.324;2023-07-30T03:50:41;17.20;99.90
22436;DHT22;11385;50.822;4.324;2023-07-30T03:53:07;17.10;99.90
22436;DHT22;11385;50.822;4.324;2023-07-30T03:55:34;17.20;99.90
22436;DHT22;11385;50.822;4.324;2023-07-30T03:58:01;17.20;99.90
22436;DHT22;11385;50.822;4.324;2023-07-30T04:00:27;17.40;99.90
22436;DHT22;11385;50.822;4.324;2023-07-30T04:02:55;17.30;99.90
22436;DHT22;11385;50.822;4.324;2023-07-30T04:05:22;17.10;99.90
22436;DHT22;11385;50.822;4.324;2023-07-30T04:07:48;17.10;99.90
22436;DHT22;11385;50.822;4.324;2023-07-30T04:10:15;17.10;99.90
22436;DHT22;11385;50.822;4.324;2023-07-30T04:12:41;17.00;99.90
22436;DHT22;11385;50.822;4.324;2023-07-30T04:15:09;17.10;99.90
22436;DHT22;11385;50.822;4.324;2023-07-30T04:17:36;17.00;99.90
22436;DHT22;11385;50.822;4.324;2023-07-30T04:20:04;17.00;99.90
22436;DHT22;11385;50.822;4.324;2023-07-30T04:22:31;17.00;99.90
22436;DHT22;11385;50.822;4.324;2023-07-30T04:24:58;16.90;99.90
22436;DHT22;11385;50.822;4.324;2023-07-30T04:27:24;16.70;99.90
22436;DHT22;11385;50.822;4.324;2023-07-30T04:29:51;16.80;99.90
22436;DHT22;11385;50.822;4.324;2023-07-30T04:37:46;16.90;99.90
22436;DHT22;11385;50.822;4.324;2023-07-30T04:40:12;16.70;99.90
22436;DHT22;11385;50.822;4.324;2023-07-30T04:42:39;16.70;99.90
22436;DHT22;11385;50.822;4.324;2023-07-30T04:45:06;16.70;99.90
22436;DHT22;11385;50.822;4.324;2023-07-30T04:47:33;16.60;99.90
22436;DHT22;11385;50.822;4.324;2023-07-30T04:50:00;16.60;99.90
22436;DHT22;11385;50.822;4.324;2023-07-30T04:52:26;16.60;99.90
22436;DHT22;11385;50.822;4.324;2023-07-30T04:54:53;16.70;99.90
22436;DHT22;11385;50.822;4.324;2023-07-30T04:57:19;16.70;99.90
22436;DHT22;11385;50.822;4.324;2023-07-30T04:59:46;16.60;99.90
22436;DHT22;11385;50.822;4.324;2023-07-30T05:02:13;16.60;99.90
22436;DHT22;11385;50.822;4.324;2023-07-30T05:04:39;16.60;99.90
22436;DHT22;11385;50.822;4.324;2023-07-30T05:07:06;16.70;99.90
22436;DHT22;11385;50.822;4.324;2023-07-30T05:09:32;16.70;99.90
22436;DHT22;11385;50.822;4.324;2023-07-30T05:11:59;16.70;99.90
22436;DHT22;11385;50.822;4.324;2023-07-30T05:14:26;16.80;99.90
22436;DHT22;11385;50.822;4.324;2023-07-30T05:16:52;17.00;99.90
22436;DHT22;11385;50.822;4.324;2023-07-30T05:19:19;17.00;99.90
22436;DHT22;11385;50.822;4.324;2023-07-30T05:21:45;17.00;99.90
22436;DHT22;11385;50.822;4.324;2023-07-30T05:24:12;17.10;99.90
22436;DHT22;11385;50.822;4.324;2023-07-30T05:26:39;17.00;99.90
22436;DHT22;11385;50.822;4.324;2023-07-30T05:29:05;17.00;99.90
22436;DHT22;11385;50.822;4.324;2023-07-30T05:31:32;17.00;99.90
22436;DHT22;11385;50.822;4.324;2023-07-30T05:33:58;17.10;99.90
22436;DHT22;11385;50.822;4.324;2023-07-30T05:36:25;17.10;99.90
22436;DHT22;11385;50.822;4.324;2023-07-30T05:38:52;17.10;99.90
22436;DHT22;11385;50.822;4.324;2023-07-30T05:41:18;17.10;99.90
22436;DHT22;11385;50.822;4.324;2023-07-30T05:43:47;17.20;99.90
22436;DHT22;11385;50.822;4.324;2023-07-30T05:46:15;17.00;99.90
22436;DHT22;11385;50.822;4.324;2023-07-30T05:48:41;17.20;99.90
22436;DHT22;11385;50.822;4.324;2023-07-30T05:51:08;17.40;99.90
22436;DHT22;11385;50.822;4.324;2023-07-30T05:53:35;17.40;99.90
22436;DHT22;11385;50.822;4.324;2023-07-30T05:56:01;17.60;99.90
22436;DHT22;11385;50.822;4.324;2023-07-30T05:58:28;17.50;99.90
22436;DHT22;11385;50.822;4.324;2023-07-30T06:00:55;17.60;99.90
22436;DHT22;11385;50.822;4.324;2023-07-30T06:03:21;17.40;99.90
22436;DHT22;11385;50.822;4.324;2023-07-30T06:05:48;17.10;99.90
22436;DHT22;11385;50.822;4.324;2023-07-30T06:08:14;17.20;99.90
22436;DHT22;11385;50.822;4.324;2023-07-30T06:10:41;17.30;99.90
22436;DHT22;11385;50.822;4.324;2023-07-30T06:13:08;17.30;99.90
22436;DHT22;11385;50.822;4.324;2023-07-30T06:15:34;17.30;99.90
22436;DHT22;11385;50.822;4.324;2023-07-30T06:18:01;17.40;99.90
22436;DHT22;11385;50.822;4.324;2023-07-30T06:20:29;17.50;99.90
22436;DHT22;11385;50.822;4.324;2023-07-30T06:22:56;17.50;99.90
22436;DHT22;11385;50.822;4.324;2023-07-30T06:25:22;17.60;99.90
22436;DHT22;11385;50.822;4.324;2023-07-30T06:27:49;17.50;99.90
22436;DHT22;11385;50.822;4.324;2023-07-30T06:30:15;17.60;99.90
22436;DHT22;11385;50.822;4.324;2023-07-30T06:32:42;17.60;99.90
22436;DHT22;11385;50.822;4.324;2023-07-30T06:35:09;17.60;99.90
22436;DHT22;11385;50.822;4.324;2023-07-30T06:37:36;17.70;99.90
22436;DHT22;11385;50.822;4.324;2023-07-30T06:40:03;17.50;99.90
22436;DHT22;11385;50.822;4.324;2023-07-30T06:42:32;17.50;99.90
22436;DHT22;11385;50.822;4.324;2023-07-30T06:44:59;17.50;99.90
22436;DHT22;11385;50.822;4.324;2023-07-30T06:47:26;17.10;99.90
22436;DHT22;11385;50.822;4.324;2023-07-30T06:49:52;17.20;99.90
22436;DHT22;11385;50.822;4.324;2023-07-30T06:52:19;17.10;99.90
22436;DHT22;11385;50.822;4.324;2023-07-30T06:54:46;17.10;99.90
22436;DHT22;11385;50.822;4.324;2023-07-30T06:57:13;17.10;99.90
22436;DHT22;11385;50.822;4.324;2023-07-30T06:59:39;17.10;99.90
22436;DHT22;11385;50.822;4.324;2023-07-30T07:02:06;17.10;99.90
22436;DHT22;11385;50.822;4.324;2023-07-30T07:04:33;17.30;99.90
22436;DHT22;11385;50.822;4.324;2023-07-30T07:07:00;17.20;99.90
22436;DHT22;11385;50.822;4.324;2023-07-30T07:09:28;17.20;99.90
22436;DHT22;11385;50.822;4.324;2023-07-30T07:11:55;17.30;99.90
22436;DHT22;11385;50.822;4.324;2023-07-30T07:14:22;17.50;99.90
22436;DHT22;11385;50.822;4.324;2023-07-30T07:16:48;17.60;99.90
22436;DHT22;11385;50.822;4.324;2023-07-30T07:19:15;17.70;99.90
22436;DHT22;11385;50.822;4.324;2023-07-30T07:21:41;17.70;99.90
22436;DHT22;11385;50.822;4.324;2023-07-30T07:24:08;18.10;99.90
22436;DHT22;11385;50.822;4.324;2023-07-30T07:26:35;18.40;99.90
22436;DHT22;11385;50.822;4.324;2023-07-30T07:29:01;18.60;99.90
22436;DHT22;11385;50.822;4.324;2023-07-30T07:31:28;18.70;99.90
22436;DHT22;11385;50.822;4.324;2023-07-30T07:33:55;18.70;99.90
22436;DHT22;11385;50.822;4.324;2023-07-30T07:36:21;18.80;99.90
22436;DHT22;11385;50.822;4.324;2023-07-30T07:38:48;18.90;99.90
22436;DHT22;11385;50.822;4.324;2023-07-30T07:41:15;18.90;99.90
22436;DHT22;11385;50.822;4.324;2023-07-30T07:43:45;18.80;99.90
22436;DHT22;11385;50.822;4.324;2023-07-30T07:46:12;19.00;99.90
22436;DHT22;11385;50.822;4.324;2023-07-30T07:48:40;19.20;99.90
22436;DHT22;11385;50.822;4.324;2023-07-30T07:51:09;19.10;99.90
22436;DHT22;11385;50.822;4.324;2023-07-30T07:53:37;19.10;99.90
22436;DHT22;11385;50.822;4.324;2023-07-30T07:56:04;19.00;99.90
22436;DHT22;11385;50.822;4.324;2023-07-30T07:58:31;19.00;99.90
22436;DHT22;11385;50.822;4.324;2023-07-30T08:00:59;19.00;99.90
22436;DHT22;11385;50.822;4.324;2023-07-30T08:03:26;19.40;99.90
22436;DHT22;11385;50.822;4.324;2023-07-30T08:05:53;19.60;99.90
22436;DHT22;11385;50.822;4.324;2023-07-30T08:08:20;19.50;99.90
22436;DHT22;11385;50.822;4.324;2023-07-30T08:10:47;19.30;99.90
22436;DHT22;11385;50.822;4.324;2023-07-30T08:13:14;19.30;99.90
22436;DHT22;11385;50.822;4.324;2023-07-30T08:15:41;19.60;99.90
22436;DHT22;11385;50.822;4.324;2023-07-30T08:18:07;19.70;99.90
22436;DHT22;11385;50.822;4.324;2023-07-30T08:20:34;19.60;99.90
22436;DHT22;11385;50.822;4.324;2023-07-30T08:23:01;19.70;99.90
22436;DHT22;11385;50.822;4.324;2023-07-30T08:25:27;19.80;99.90
22436;DHT22;11385;50.822;4.324;2023-07-30T08:27:54;19.90;99.90
22436;DHT22;11385;50.822;4.324;2023-07-30T08:30:21;19.70;99.90
22436;DHT22;11385;50.822;4.324;2023-07-30T08:32:48;19.60;99.90
22436;DHT22;11385;50.822;4.324;2023-07-30T08:35:14;19.60;99.90
22436;DHT22;11385;50.822;4.324;2023-07-30T08:37:41;19.60;99.90
22436;DHT22;11385;50.822;4.324;2023-07-30T08:40:08;19.80;99.90
22436;DHT22;11385;50.822;4.324;2023-07-30T08:42:36;19.90;99.90
22436;DHT22;11385;50.822;4.324;2023-07-30T08:45:05;19.90;99.90
22436;DHT22;11385;50.822;4.324;2023-07-30T08:47:33;19.80;99.90
22436;DHT22;11385;50.822;4.324;2023-07-30T08:50:00;20.00;99.90
22436;DHT22;11385;50.822;4.324;2023-07-30T08:52:29;19.70;99.90
22436;DHT22;11385;50.822;4.324;2023-07-30T08:54:57;19.60;99.90
22436;DHT22;11385;50.822;4.324;2023-07-30T08:57:29;19.70;99.90
22436;DHT22;11385;50.822;4.324;2023-07-30T09:00:04;19.70;99.90
22436;DHT22;11385;50.822;4.324;2023-07-30T09:02:38;19.70;99.90
22436;DHT22;11385;50.822;4.324;2023-07-30T09:05:05;19.60;99.90
22436;DHT22;11385;50.822;4.324;2023-07-30T09:07:33;19.60;99.90
22436;DHT22;11385;50.822;4.324;2023-07-30T09:09:59;19.70;99.90
22436;DHT22;11385;50.822;4.324;2023-07-30T09:12:30;19.70;99.90
22436;DHT22;11385;50.822;4.324;2023-07-30T09:14:57;19.60;99.90
22436;DHT22;11385;50.822;4.324;2023-07-30T09:17:24;19.30;99.90
22436;DHT22;11385;50.822;4.324;2023-07-30T09:19:52;19.00;99.90
22436;DHT22;11385;50.822;4.324;2023-07-30T09:22:24;18.90;99.90
22436;DHT22;11385;50.822;4.324;2023-07-30T09:24:49;19.00;99.90
22436;DHT22;11385;50.822;4.324;2023-07-30T09:27:19;19.30;99.90
22436;DHT22;11385;50.822;4.324;2023-07-30T09:29:51;19.50;99.90
22436;DHT22;11385;50.822;4.324;2023-07-30T09:32:19;19.40;99.90
22436;DHT22;11385;50.822;4.324;2023-07-30T09:34:46;19.40;99.90
22436;DHT22;11385;50.822;4.324;2023-07-30T09:37:13;19.60;99.90
22436;DHT22;11385;50.822;4.324;2023-07-30T09:39:41;19.60;99.90
22436;DHT22;11385;50.822;4.324;2023-07-30T09:42:08;19.80;99.90
22436;DHT22;11385;50.822;4.324;2023-07-30T09:44:37;19.70;99.90
22436;DHT22;11385;50.822;4.324;2023-07-30T09:47:05;19.50;99.90
22436;DHT22;11385;50.822;4.324;2023-07-30T09:49:33;19.60;99.90
22436;DHT22;11385;50.822;4.324;2023-07-30T09:52:02;19.60;99.90
22436;DHT22;11385;50.822;4.324;2023-07-30T09:54:29;19.60;99.90
22436;DHT22;11385;50.822;4.324;2023-07-30T09:56:57;19.60;99.90
22436;DHT22;11385;50.822;4.324;2023-07-30T09:59:24;19.70;99.90
22436;DHT22;11385;50.822;4.324;2023-07-30T10:01:52;19.70;99.90
22436;DHT22;11385;50.822;4.324;2023-07-30T10:04:22;19.70;99.90
22436;DHT22;11385;50.822;4.324;2023-07-30T10:06:58;19.60;99.90
22436;DHT22;11385;50.822;4.324;2023-07-30T10:09:29;19.30;99.90
22436;DHT22;11385;50.822;4.324;2023-07-30T10:11:57;18.70;99.90
22436;DHT22;11385;50.822;4.324;2023-07-30T10:14:25;18.60;99.90
22436;DHT22;11385;50.822;4.324;2023-07-30T10:16:53;18.60;99.90
22436;DHT22;11385;50.822;4.324;2023-07-30T10:19:24;18.60;99.90
22436;DHT22;11385;50.822;4.324;2023-07-30T10:21:53;18.70;99.90
22436;DHT22;11385;50.822;4.324;2023-07-30T10:24:20;19.00;99.90
22436;DHT22;11385;50.822;4.324;2023-07-30T10:26:47;19.20;99.90
22436;DHT22;11385;50.822;4.324;2023-07-30T10:29:16;19.40;99.90
22436;DHT22;11385;50.822;4.324;2023-07-30T10:31:54;19.70;99.90
22436;DHT22;11385;50.822;4.324;2023-07-30T10:34:22;20.10;99.90
22436;DHT22;11385;50.822;4.324;2023-07-30T10:36:50;20.20;99.90
22436;DHT22;11385;50.822;4.324;2023-07-30T10:39:18;20.40;99.90
22436;DHT22;11385;50.822;4.324;2023-07-30T10:41:48;20.30;99.90
22436;DHT22;11385;50.822;4.324;2023-07-30T10:44:19;20.00;99.90
22436;DHT22;11385;50.822;4.324;2023-07-30T10:46:47;19.50;99.90
22436;DHT22;11385;50.822;4.324;2023-07-30T10:49:13;18.90;99.90
22436;DHT22;11385;50.822;4.324;2023-07-30T10:51:40;18.80;99.90
22436;DHT22;11385;50.822;4.324;2023-07-30T10:54:07;18.80;99.90
22436;DHT22;11385;50.822;4.324;2023-07-30T10:56:36;19.00;99.90
22436;DHT22;11385;50.822;4.324;2023-07-30T10:59:05;19.30;99.90
22436;DHT22;11385;50.822;4.324;2023-07-30T11:01:40;19.50;99.90
22436;DHT22;11385;50.822;4.324;2023-07-30T11:04:10;19.80;99.90
22436;DHT22;11385;50.822;4.324;2023-07-30T11:06:37;19.80;99.90
22436;DHT22;11385;50.822;4.324;2023-07-30T11:09:05;20.00;99.90
22436;DHT22;11385;50.822;4.324;2023-07-30T11:11:32;20.30;99.90
22436;DHT22;11385;50.822;4.324;2023-07-30T11:13:59;20.80;99.90
22436;DHT22;11385;50.822;4.324;2023-07-30T11:16:26;21.30;99.90
22436;DHT22;11385;50.822;4.324;2023-07-30T11:18:53;21.60;99.90
22436;DHT22;11385;50.822;4.324;2023-07-30T11:21:20;21.70;99.90
22436;DHT22;11385;50.822;4.324;2023-07-30T11:23:46;21.40;99.90
22436;DHT22;11385;50.822;4.324;2023-07-30T11:26:16;21.20;99.90
22436;DHT22;11385;50.822;4.324;2023-07-30T11:28:44;21.10;99.90
22436;DHT22;11385;50.822;4.324;2023-07-30T11:31:14;21.00;99.90
22436;DHT22;11385;50.822;4.324;2023-07-30T11:33:42;20.90;99.90
22436;DHT22;11385;50.822;4.324;2023-07-30T11:36:14;20.90;99.90
22436;DHT22;11385;50.822;4.324;2023-07-30T11:38:41;20.90;99.90
22436;DHT22;11385;50.822;4.324;2023-07-30T11:41:10;21.00;99.90
22436;DHT22;11385;50.822;4.324;2023-07-30T11:43:40;21.40;99.90
22436;DHT22;11385;50.822;4.324;2023-07-30T11:46:13;21.70;99.90
22436;DHT22;11385;50.822;4.324;2023-07-30T11:48:42;22.10;99.90
22436;DHT22;11385;50.822;4.324;2023-07-30T11:51:25;22.70;99.90
22436;DHT22;11385;50.822;4.324;2023-07-30T11:53:54;22.90;99.90
22436;DHT22;11385;50.822;4.324;2023-07-30T11:56:25;23.00;99.90
22436;DHT22;11385;50.822;4.324;2023-07-30T11:58:56;22.80;99.90
22436;DHT22;11385;50.822;4.324;2023-07-30T12:01:25;22.20;99.90
22436;DHT22;11385;50.822;4.324;2023-07-30T12:03:55;22.20;99.90
22436;DHT22;11385;50.822;4.324;2023-07-30T12:06:22;22.10;99.90
22436;DHT22;11385;50.822;4.324;2023-07-30T12:08:50;22.10;99.90
22436;DHT22;11385;50.822;4.324;2023-07-30T12:11:18;22.50;99.90
22436;DHT22;11385;50.822;4.324;2023-07-30T12:13:46;22.90;99.90
22436;DHT22;11385;50.822;4.324;2023-07-30T12:16:15;23.20;99.90
22436;DHT22;11385;50.822;4.324;2023-07-30T12:18:42;23.20;99.90
22436;DHT22;11385;50.822;4.324;2023-07-30T12:21:09;23.20;99.90
22436;DHT22;11385;50.822;4.324;2023-07-30T12:23:37;23.50;99.90
22436;DHT22;11385;50.822;4.324;2023-07-30T12:26:04;23.40;99.90
22436;DHT22;11385;50.822;4.324;2023-07-30T12:28:32;23.30;99.90
22436;DHT22;11385;50.822;4.324;2023-07-30T12:31:00;22.90;99.90
22436;DHT22;11385;50.822;4.324;2023-07-30T12:33:27;22.50;99.90
22436;DHT22;11385;50.822;4.324;2023-07-30T12:35:54;22.60;99.90
22436;DHT22;11385;50.822;4.324;2023-07-30T12:38:20;22.80;99.90
22436;DHT22;11385;50.822;4.324;2023-07-30T12:40:47;22.70;99.90
22436;DHT22;11385;50.822;4.324;2023-07-30T12:43:13;22.50;99.90
22436;DHT22;11385;50.822;4.324;2023-07-30T12:45:40;22.60;99.90
22436;DHT22;11385;50.822;4.324;2023-07-30T12:48:07;22.90;99.90
22436;DHT22;11385;50.822;4.324;2023-07-30T12:50:34;23.10;99.90
22436;DHT22;11385;50.822;4.324;2023-07-30T12:53:00;23.50;99.90
22436;DHT22;11385;50.822;4.324;2023-07-30T12:55:27;23.60;99.90
22436;DHT22;11385;50.822;4.324;2023-07-30T12:57:53;23.60;99.90
22436;DHT22;11385;50.822;4.324;2023-07-30T13:00:20;23.40;99.90
22436;DHT22;11385;50.822;4.324;2023-07-30T13:02:47;23.40;99.90
22436;DHT22;11385;50.822;4.324;2023-07-30T13:05:13;23.50;99.90
22436;DHT22;11385;50.822;4.324;2023-07-30T13:07:41;23.50;99.90
22436;DHT22;11385;50.822;4.324;2023-07-30T13:10:09;23.50;99.90
22436;DHT22;11385;50.822;4.324;2023-07-30T13:12:36;23.50;99.90
22436;DHT22;11385;50.822;4.324;2023-07-30T13:15:03;23.30;99.90
22436;DHT22;11385;50.822;4.324;2023-07-30T13:17:29;23.30;99.90
22436;DHT22;11385;50.822;4.324;2023-07-30T13:19:56;23.30;99.90
22436;DHT22;11385;50.822;4.324;2023-07-30T13:22:23;23.40;99.90
22436;DHT22;11385;50.822;4.324;2023-07-30T13:24:49;23.60;99.90
22436;DHT22;11385;50.822;4.324;2023-07-30T13:27:16;23.70;99.90
22436;DHT22;11385;50.822;4.324;2023-07-30T13:29:44;23.70;99.90
22436;DHT22;11385;50.822;4.324;2023-07-30T13:32:11;23.60;99.90
22436;DHT22;11385;50.822;4.324;2023-07-30T13:34:37;23.50;99.90
22436;DHT22;11385;50.822;4.324;2023-07-30T13:37:05;23.70;99.90
22436;DHT22;11385;50.822;4.324;2023-07-30T13:39:31;23.90;99.90
22436;DHT22;11385;50.822;4.324;2023-07-30T13:41:58;23.90;99.90
22436;DHT22;11385;50.822;4.324;2023-07-30T13:44:24;24.10;99.90
22436;DHT22;11385;50.822;4.324;2023-07-30T13:46:51;24.10;99.90
22436;DHT22;11385;50.822;4.324;2023-07-30T13:49:19;24.20;99.90
22436;DHT22;11385;50.822;4.324;2023-07-30T13:51:46;24.50;99.90
22436;DHT22;11385;50.822;4.324;2023-07-30T13:54:12;24.40;99.90
22436;DHT22;11385;50.822;4.324;2023-07-30T13:56:39;24.20;99.90
22436;DHT22;11385;50.822;4.324;2023-07-30T13:59:06;24.10;99.90
22436;DHT22;11385;50.822;4.324;2023-07-30T14:01:32;23.70;99.90
22436;DHT22;11385;50.822;4.324;2023-07-30T14:03:59;23.70;99.90
22436;DHT22;11385;50.822;4.324;2023-07-30T14:06:26;23.70;99.90
22436;DHT22;11385;50.822;4.324;2023-07-30T14:08:52;23.70;99.90
22436;DHT22;11385;50.822;4.324;2023-07-30T14:11:19;23.60;99.90
22436;DHT22;11385;50.822;4.324;2023-07-30T14:13:46;23.60;99.90
22436;DHT22;11385;50.822;4.324;2023-07-30T14:16:12;23.70;99.90
22436;DHT22;11385;50.822;4.324;2023-07-30T14:18:40;23.50;99.90
22436;DHT22;11385;50.822;4.324;2023-07-30T14:21:06;23.50;99.90
22436;DHT22;11385;50.822;4.324;2023-07-30T14:23:33;23.50;99.90
22436;DHT22;11385;50.822;4.324;2023-07-30T14:26:00;23.40;99.90
22436;DHT22;11385;50.822;4.324;2023-07-30T14:28:26;23.80;99.90
22436;DHT22;11385;50.822;4.324;2023-07-30T14:30:53;23.80;99.90
22436;DHT22;11385;50.822;4.324;2023-07-30T14:33:20;24.10;99.90
22436;DHT22;11385;50.822;4.324;2023-07-30T14:35:47;23.90;99.90
22436;DHT22;11385;50.822;4.324;2023-07-30T14:38:13;24.10;99.90
22436;DHT22;11385;50.822;4.324;2023-07-30T14:40:42;24.00;99.90
22436;DHT22;11385;50.822;4.324;2023-07-30T14:43:09;23.90;99.90
22436;DHT22;11385;50.822;4.324;2023-07-30T14:45:36;23.80;99.90
22436;DHT22;11385;50.822;4.324;2023-07-30T14:48:03;23.40;99.90
22436;DHT22;11385;50.822;4.324;2023-07-30T14:50:30;23.40;99.90
22436;DHT22;11385;50.822;4.324;2023-07-30T14:52:56;23.30;99.90
22436;DHT22;11385;50.822;4.324;2023-07-30T14:55:23;22.90;99.90
22436;DHT22;11385;50.822;4.324;2023-07-30T14:57:50;22.80;99.90
22436;DHT22;11385;50.822;4.324;2023-07-30T15:00:16;22.60;99.90
22436;DHT22;11385;50.822;4.324;2023-07-30T15:02:43;22.50;99.90
22436;DHT22;11385;50.822;4.324;2023-07-30T15:05:11;22.30;99.90
22436;DHT22;11385;50.822;4.324;2023-07-30T15:07:37;22.30;99.90
22436;DHT22;11385;50.822;4.324;2023-07-30T15:10:04;22.20;99.90
22436;DHT22;11385;50.822;4.324;2023-07-30T15:12:31;22.20;99.90
22436;DHT22;11385;50.822;4.324;2023-07-30T15:14:58;22.10;99.90
22436;DHT22;11385;50.822;4.324;2023-07-30T15:17:24;22.00;99.90
22436;DHT22;11385;50.822;4.324;2023-07-30T15:19:51;21.90;99.90
22436;DHT22;11385;50.822;4.324;2023-07-30T15:22:19;21.90;99.90
22436;DHT22;11385;50.822;4.324;2023-07-30T15:24:46;21.70;99.90
22436;DHT22;11385;50.822;4.324;2023-07-30T15:27:12;21.70;99.90
22436;DHT22;11385;50.822;4.324;2023-07-30T15:29:40;21.50;99.90
22436;DHT22;11385;50.822;4.324;2023-07-30T15:32:07;21.40;99.90
22436;DHT22;11385;50.822;4.324;2023-07-30T15:34:33;21.40;99.90